createdAt,value
2023-01-27T00:01:01.093Z,101384.25
2023-01-27T00:03:29.009Z,101384.25
2023-01-27T00:05:57.104Z,101372.13
2023-01-27T00:08:24.822Z,101373.88
2023-01-27T00:11:12.654Z,101373.97
2023-01-27T00:13:40.797Z,101380.09
2023-01-27T00:16:08.826Z,101372.25
2023-01-27T00:18:36.611Z,101375.91
2023-01-27T00:21:22.217Z,101377.47
2023-01-27T00:24:07.592Z,101380.22
2023-01-27T00:26:35.433Z,101386.38
2023-01-27T00:29:04.599Z,101384.53
2023-01-27T00:31:50.242Z,101380.09
2023-01-27T00:34:18.067Z,101381.78
2023-01-27T00:36:45.755Z,101385.88
2023-01-27T00:39:14.279Z,101388.22
2023-01-27T00:41:44.545Z,101378.75
2023-01-27T00:44:13.796Z,101387.25
2023-01-27T00:46:43.021Z,101395.22
2023-01-27T00:49:13.328Z,101390.63
2023-01-27T00:51:41.137Z,101387.25
2023-01-27T00:54:09.224Z,101390.06
2023-01-27T00:56:37.146Z,101390.00
2023-01-27T00:59:05.551Z,101399.41
2023-01-27T01:01:35.502Z,101401.78
2023-01-27T01:04:03.625Z,101394.84
2023-01-27T01:06:32.306Z,101399.09
2023-01-27T01:09:00.686Z,101408.63
2023-01-27T01:11:28.729Z,101402.50
2023-01-27T01:13:57.233Z,101407.59
2023-01-27T01:16:26.221Z,101399.41
2023-01-27T01:18:55.607Z,101411.91
2023-01-27T01:21:23.499Z,101407.72
2023-01-27T01:23:51.417Z,101413.59
2023-01-27T01:26:19.497Z,101416.22
2023-01-27T01:28:48.661Z,101419.75
2023-01-27T01:31:18.186Z,101406.16
2023-01-27T01:33:46.225Z,101419.75
2023-01-27T01:36:18.312Z,101413.88
2023-01-27T01:38:46.482Z,101426.03
2023-01-27T01:41:16.803Z,101414.28
2023-01-27T01:43:44.719Z,101421.72
2023-01-27T01:46:14.176Z,101420.66
2023-01-27T01:48:46.935Z,101426.66
2023-01-27T01:51:19.081Z,101418.97
2023-01-27T01:53:51.915Z,101419.88
2023-01-27T01:56:25.035Z,101425.81
2023-01-27T01:58:56.950Z,101423.91
2023-01-27T02:01:24.811Z,101425.03
2023-01-27T02:03:58.084Z,101419.59
2023-01-27T02:06:27.296Z,101419.59
2023-01-27T02:08:55.748Z,101428.38
2023-01-27T02:11:23.768Z,101415.50
2023-01-27T02:13:52.674Z,101418.03
2023-01-27T02:16:20.500Z,101428.22
2023-01-27T02:18:48.435Z,101430.84
2023-01-27T02:21:16.185Z,101435.28
2023-01-27T02:23:59.910Z,101425.81
2023-01-27T02:26:32.040Z,101433.38
2023-01-27T02:29:03.494Z,101433.47
2023-01-27T02:31:31.271Z,101405.41
2023-01-27T02:34:03.677Z,101426.66
2023-01-27T02:36:35.421Z,101430.75
2023-01-27T02:39:07.448Z,101429.75
2023-01-27T02:41:41.559Z,101432.63
2023-01-27T02:44:10.339Z,101429.16
2023-01-27T02:46:39.642Z,101438.81
2023-01-27T02:49:08.666Z,101437.84
2023-01-27T02:51:36.789Z,101442.06
2023-01-27T02:54:04.710Z,101441.31
2023-01-27T02:56:32.864Z,101439.16
2023-01-27T02:59:01.917Z,101435.63
2023-01-27T03:01:35.397Z,101447.47
2023-01-27T03:04:03.731Z,101447.47
2023-01-27T03:06:31.484Z,101447.28
2023-01-27T03:08:59.414Z,101444.59
2023-01-27T03:11:53.948Z,101447.28
2023-01-27T03:14:37.227Z,101444.06
2023-01-27T03:17:22.566Z,101443.34
2023-01-27T03:19:53.208Z,101441.56
2023-01-27T03:22:21.243Z,101445.19
2023-01-27T03:24:48.988Z,101448.50
2023-01-27T03:27:16.817Z,101453.66
2023-01-27T03:30:11.123Z,101441.50
2023-01-27T03:32:46.298Z,101450.34
2023-01-27T03:35:39.093Z,101455.56
2023-01-27T03:38:29.324Z,101454.66
2023-01-27T03:41:14.657Z,101457.13
2023-01-27T03:43:59.875Z,101461.44
2023-01-27T03:46:29.064Z,101466.75
2023-01-27T03:48:57.573Z,101462.34
2023-01-27T03:51:26.302Z,101465.09
2023-01-27T03:53:54.519Z,101458.19
2023-01-27T03:56:23.264Z,101461.72
2023-01-27T03:58:51.549Z,101462.56
2023-01-27T04:01:21.410Z,101462.44
2023-01-27T04:04:09.483Z,101459.03
2023-01-27T04:06:55.203Z,101463.28
2023-01-27T04:09:25.943Z,101463.28
2023-01-27T04:11:55.852Z,101464.97
2023-01-27T04:14:25.584Z,101465.03
2023-01-27T04:16:55.810Z,101459.75
2023-01-27T04:19:25.864Z,101458.03
2023-01-27T04:21:54.647Z,101460.59
2023-01-27T04:24:25.242Z,101454.66
2023-01-27T04:26:55.845Z,101459.03
2023-01-27T04:29:25.577Z,101462.44
2023-01-27T04:31:53.699Z,101464.31
2023-01-27T04:34:21.798Z,101465.09
2023-01-27T04:36:51.227Z,101464.13
2023-01-27T04:39:19.407Z,101463.47
2023-01-27T04:41:49.065Z,101461.72
2023-01-27T04:44:17.198Z,101466.22
2023-01-27T04:46:44.970Z,101468.91
2023-01-27T04:49:12.792Z,101459.34
2023-01-27T04:51:40.629Z,101467.19
2023-01-27T04:54:10.107Z,101466.50
2023-01-27T04:56:39.334Z,101466.72
2023-01-27T04:59:09.167Z,101472.84
2023-01-27T05:01:37.044Z,101466.78
2023-01-27T05:04:05.361Z,101473.00
2023-01-27T05:06:33.579Z,101484.88
2023-01-27T05:09:01.831Z,101485.13
2023-01-27T05:11:31.283Z,101493.63
2023-01-27T05:13:59.067Z,101484.88
2023-01-27T05:16:27.605Z,101486.44
2023-01-27T05:18:56.135Z,101485.81
2023-01-27T05:21:25.687Z,101491.03
2023-01-27T05:23:53.563Z,101490.13
2023-01-27T05:26:22.600Z,101489.25
2023-01-27T05:28:53.691Z,101496.19
2023-01-27T05:31:23.991Z,101496.25
2023-01-27T05:33:54.132Z,101496.06
2023-01-27T05:36:24.646Z,101507.22
2023-01-27T05:38:52.960Z,101502.13
2023-01-27T05:41:21.313Z,101502.91
2023-01-27T05:43:55.174Z,101507.22
2023-01-27T05:46:25.039Z,101508.91
2023-01-27T05:48:54.745Z,101479.91
2023-01-27T05:51:25.356Z,101506.81
2023-01-27T05:53:53.942Z,101499.09
2023-01-27T05:56:21.676Z,101507.06
2023-01-27T05:58:49.702Z,101521.66
2023-01-27T06:01:20.612Z,101516.19
2023-01-27T06:03:49.217Z,101517.16
2023-01-27T06:06:18.864Z,101521.44
2023-01-27T06:08:47.310Z,101522.38
2023-01-27T06:11:15.386Z,101506.16
2023-01-27T06:13:43.100Z,101525.06
2023-01-27T06:16:13.248Z,101525.06
2023-01-27T06:18:42.354Z,101523.13
2023-01-27T06:21:12.110Z,101517.91
2023-01-27T06:23:40.385Z,101518.81
2023-01-27T06:26:11.461Z,101521.59
2023-01-27T06:28:40.056Z,101518.06
2023-01-27T06:31:09.367Z,101520.69
2023-01-27T06:33:37.638Z,101506.22
2023-01-27T06:36:09.419Z,101519.59
2023-01-27T06:38:37.474Z,101524.03
2023-01-27T06:41:05.772Z,101532.00
2023-01-27T06:43:33.508Z,101537.13
2023-01-27T06:46:03.616Z,101548.53
2023-01-27T06:48:33.463Z,101539.84
2023-01-27T06:51:01.312Z,101543.13
2023-01-27T06:53:31.493Z,101548.22
2023-01-27T06:56:01.204Z,101553.47
2023-01-27T06:58:29.811Z,101555.16
2023-01-27T07:00:57.958Z,101549.22
2023-01-27T07:03:26.858Z,101551.69
2023-01-27T07:05:54.620Z,101551.75
2023-01-27T07:08:22.425Z,101543.19
2023-01-27T07:10:51.676Z,101548.22
2023-01-27T07:13:19.696Z,101559.47
2023-01-27T07:15:47.587Z,101543.97
2023-01-27T07:18:15.402Z,101551.56
2023-01-27T07:20:43.581Z,101549.81
2023-01-27T07:23:13.118Z,101549.81
2023-01-27T07:25:41.222Z,101558.44
2023-01-27T07:57:44.982Z,101576.94
2023-01-27T08:00:15.553Z,101581.41
2023-01-27T08:02:43.706Z,101581.41
2023-01-27T08:05:11.609Z,101581.41
2023-01-27T08:07:39.394Z,101580.34
2023-01-27T08:10:08.039Z,101578.66
2023-01-27T08:12:35.859Z,101589.84
2023-01-27T08:15:05.764Z,101592.31
2023-01-27T08:17:34.047Z,101580.28
2023-01-27T08:20:01.824Z,101576.34
2023-01-27T08:22:29.884Z,101586.81
2023-01-27T08:24:57.742Z,101587.53
2023-01-27T08:27:25.584Z,101586.56
2023-01-27T08:29:54.223Z,101590.81
2023-01-27T08:32:23.348Z,101586.00
2023-01-27T08:34:51.057Z,101588.69
2023-01-27T08:37:18.854Z,101576.38
2023-01-27T08:39:46.605Z,101578.94
2023-01-27T08:42:14.351Z,101587.09
2023-01-27T08:44:42.175Z,101579.22
2023-01-27T08:47:09.917Z,101584.91
2023-01-27T08:49:38.980Z,101588.94
2023-01-27T08:52:06.766Z,101586.19
2023-01-27T08:54:34.553Z,101592.06
2023-01-27T08:57:02.224Z,101596.22
2023-01-27T08:59:29.990Z,101591.63
2023-01-27T09:01:57.671Z,101592.19
2023-01-27T09:04:25.668Z,101595.53
2023-01-27T09:06:54.774Z,101592.72
2023-01-27T09:09:22.519Z,101592.31
2023-01-27T09:11:50.234Z,101590.94
2023-01-27T09:14:18.775Z,101596.88
2023-01-27T09:16:46.478Z,101592.41
2023-01-27T09:19:14.194Z,101601.09
2023-01-27T09:21:41.961Z,101597.75
2023-01-27T09:24:11.276Z,101599.72
2023-01-27T09:26:39.101Z,101607.56
2023-01-27T09:29:06.986Z,101605.16
2023-01-27T09:31:34.848Z,101610.47
2023-01-27T09:34:02.644Z,101612.09
2023-01-27T09:36:30.443Z,101607.00
2023-01-27T09:39:03.643Z,101620.75
2023-01-27T09:42:06.080Z,101614.44
2023-01-27T09:44:47.460Z,101622.22
2023-01-27T09:47:35.760Z,101633.91
2023-01-27T09:50:29.302Z,101626.81
2023-01-27T09:53:26.256Z,101629.06
2023-01-27T09:56:07.433Z,101657.03
2023-01-27T09:58:50.019Z,101663.03
2023-01-27T10:01:34.885Z,101642.09
2023-01-27T10:04:17.016Z,101659.22
2023-01-27T10:07:10.360Z,101657.28
2023-01-27T10:10:00.048Z,101651.69
2023-01-27T10:12:45.630Z,101648.34
2023-01-27T10:15:25.365Z,101649.97
2023-01-27T10:18:03.315Z,101644.59
2023-01-27T10:20:40.024Z,101650.69
2023-01-27T10:23:25.676Z,101635.25
2023-01-27T10:26:04.693Z,101626.78
2023-01-27T10:28:39.286Z,101647.84
2023-01-27T10:31:16.156Z,101656.63
2023-01-27T10:34:01.847Z,101667.13
2023-01-27T10:36:40.776Z,101641.66
2023-01-27T10:39:19.652Z,101675.91
2023-01-27T10:41:57.987Z,101665.44
2023-01-27T10:44:43.796Z,101662.81
2023-01-27T10:47:28.757Z,101663.72
2023-01-27T10:50:01.134Z,101672.38
2023-01-27T10:52:37.000Z,101669.75
2023-01-27T10:55:16.155Z,101660.13
2023-01-27T10:57:50.115Z,101662.75
2023-01-27T11:00:57.528Z,101666.03
2023-01-27T11:03:23.371Z,101662.19
2023-01-27T11:05:53.884Z,101664.44
2023-01-27T11:08:24.912Z,101651.09
2023-01-27T11:11:13.765Z,101666.06
2023-01-27T11:13:42.097Z,101662.97
2023-01-27T11:16:16.028Z,101661.28
2023-01-27T11:18:46.597Z,101656.31
2023-01-27T11:21:19.579Z,101656.97
2023-01-27T11:23:51.969Z,101648.25
2023-01-27T11:26:28.581Z,101655.25
2023-01-27T11:29:07.283Z,101652.16
2023-01-27T11:31:41.182Z,101643.22
2023-01-27T11:34:18.130Z,101650.63
2023-01-27T11:36:45.986Z,101629.81
2023-01-27T11:39:16.272Z,101634.22
2023-01-27T11:41:48.384Z,101632.97
2023-01-27T11:44:20.814Z,101635.09
2023-01-27T11:46:50.232Z,101624.84
2023-01-27T11:49:24.977Z,101622.91
2023-01-27T11:51:52.784Z,101628.97
2023-01-27T11:54:24.549Z,101624.00
2023-01-27T11:56:52.433Z,101623.16
2023-01-27T11:59:24.185Z,101636.28
2023-01-27T12:01:56.302Z,101630.84
2023-01-27T12:04:46.371Z,101620.53
2023-01-27T12:07:18.344Z,101616.94
2023-01-27T12:09:46.111Z,101616.19
2023-01-27T12:12:24.852Z,101614.13
2023-01-27T12:14:55.079Z,101613.63
2023-01-27T12:17:29.152Z,101619.47
2023-01-27T12:20:01.384Z,101619.97
2023-01-27T12:22:34.876Z,101620.47
2023-01-27T12:25:06.131Z,101616.31
2023-01-27T12:27:41.791Z,101602.63
2023-01-27T12:30:21.230Z,101608.75
2023-01-27T12:32:49.747Z,101611.44
2023-01-27T12:35:25.431Z,101603.06
2023-01-27T12:37:59.316Z,101603.84
2023-01-27T12:40:31.939Z,101588.88
2023-01-27T12:43:12.055Z,101591.94
2023-01-27T12:45:40.862Z,101591.78
2023-01-27T12:48:20.626Z,101593.50
2023-01-27T12:51:04.465Z,101588.56
2023-01-27T12:53:32.347Z,101581.16
2023-01-27T12:56:05.658Z,101593.81
2023-01-27T12:58:36.982Z,101596.69
2023-01-27T13:01:08.554Z,101589.97
2023-01-27T13:03:43.172Z,101595.13
2023-01-27T13:06:17.029Z,101598.78
2023-01-27T13:08:46.100Z,101598.78
2023-01-27T13:11:14.272Z,101603.25
2023-01-27T13:13:51.612Z,101601.47
2023-01-27T13:16:27.277Z,101601.69
2023-01-27T13:18:56.481Z,101608.66
2023-01-27T13:21:29.695Z,101600.63
2023-01-27T13:24:00.309Z,101608.50
2023-01-27T13:26:31.416Z,101608.56
2023-01-27T13:29:04.099Z,101612.88
2023-01-27T13:31:42.894Z,101619.91
2023-01-27T13:34:18.267Z,101623.47
2023-01-27T13:36:54.618Z,101621.00
2023-01-27T13:39:32.456Z,101622.88
2023-01-27T13:42:12.376Z,101626.56
2023-01-27T13:44:44.221Z,101619.63
2023-01-27T13:47:17.590Z,101634.66
2023-01-27T13:49:49.083Z,101620.25
2023-01-27T13:52:18.208Z,101631.19
2023-01-27T13:54:46.036Z,101631.19
2023-01-27T13:57:29.372Z,101633.81
2023-01-27T14:00:09.417Z,101631.81
2023-01-27T14:03:16.620Z,101633.81
2023-01-27T14:05:59.417Z,101631.97
2023-01-27T14:08:46.301Z,101633.50
2023-01-27T14:11:23.884Z,101631.47
2023-01-27T14:14:05.846Z,101630.19
2023-01-27T14:16:43.892Z,101639.84
2023-01-27T14:19:30.657Z,101640.84
2023-01-27T14:22:06.277Z,101650.63
2023-01-27T14:24:45.960Z,101644.78
2023-01-27T14:27:19.140Z,101641.84
2023-01-27T14:29:56.305Z,101647.00
2023-01-27T14:32:33.244Z,101657.34
2023-01-27T14:35:19.449Z,101657.56
2023-01-27T14:37:56.805Z,101654.88
2023-01-27T14:40:32.699Z,101645.84
2023-01-27T14:43:16.758Z,101650.03
2023-01-27T14:45:47.891Z,101654.44
2023-01-27T14:48:32.273Z,101660.69
2023-01-27T14:51:09.045Z,101652.25
2023-01-27T14:53:51.639Z,101660.97
2023-01-27T14:56:32.563Z,101656.06
2023-01-27T14:59:08.314Z,101659.13
2023-01-27T15:01:47.277Z,101651.56
2023-01-27T15:04:42.354Z,101655.88
2023-01-27T15:07:17.339Z,101663.91
2023-01-27T15:09:59.346Z,101670.06
2023-01-27T15:12:55.821Z,101675.31
2023-01-27T15:15:43.087Z,101677.31
2023-01-27T15:18:27.327Z,101679.13
2023-01-27T15:21:18.272Z,101665.50
2023-01-27T15:24:09.369Z,101656.78
2023-01-27T15:26:41.089Z,101679.91
2023-01-27T15:29:14.976Z,101691.31
2023-01-27T15:31:44.272Z,101699.13
2023-01-27T15:34:23.075Z,101700.13
2023-01-27T15:37:03.130Z,101705.81
2023-01-27T15:39:41.709Z,101704.13
2023-01-27T15:42:13.359Z,101712.63
2023-01-27T15:44:59.885Z,101708.44
2023-01-27T15:47:30.100Z,101712.75
2023-01-27T15:50:08.304Z,101716.31
2023-01-27T15:52:42.232Z,101705.31
2023-01-27T15:55:25.648Z,101717.22
2023-01-27T15:58:02.367Z,101721.69
2023-01-27T16:00:35.419Z,101724.44
2023-01-27T16:03:08.134Z,101712.63
2023-01-27T16:05:45.841Z,101724.69
2023-01-27T16:08:15.783Z,101715.66
2023-01-27T16:10:44.969Z,101738.78
2023-01-27T16:13:27.181Z,101741.47
2023-01-27T16:16:31.706Z,101741.47
2023-01-27T16:19:15.747Z,101729.16
2023-01-27T16:21:49.449Z,101741.66
2023-01-27T16:24:26.195Z,101749.47
2023-01-27T16:27:00.787Z,101746.91
2023-01-27T16:29:36.934Z,101754.00
2023-01-27T16:32:08.299Z,101738.97
2023-01-27T16:34:41.002Z,101760.44
2023-01-27T16:37:23.360Z,101765.88
2023-01-27T16:39:59.293Z,101762.47
2023-01-27T16:42:33.909Z,101778.22
2023-01-27T16:45:05.207Z,101766.03
2023-01-27T16:47:42.524Z,101777.28
2023-01-27T16:57:32.504Z,101774.19
2023-01-27T17:00:03.903Z,101773.47
2023-01-27T17:02:34.270Z,101781.44
2023-01-27T17:05:07.255Z,101787.53
2023-01-27T17:07:35.016Z,101790.09
2023-01-27T17:10:18.935Z,101791.94
2023-01-27T17:12:52.064Z,101792.00
2023-01-27T17:15:22.182Z,101801.56
2023-01-27T17:17:52.856Z,101799.06
2023-01-27T17:20:24.562Z,101785.53
2023-01-27T17:22:54.513Z,101798.28
2023-01-27T17:25:29.518Z,101804.53
2023-01-27T17:28:00.805Z,101803.59
2023-01-27T17:30:35.164Z,101801.19
2023-01-27T17:33:07.253Z,101806.06
2023-01-27T17:35:37.848Z,101800.91
2023-01-27T17:38:11.070Z,101796.44
2023-01-27T17:40:41.951Z,101802.66
2023-01-27T17:43:28.616Z,101800.81
2023-01-27T17:46:18.805Z,101802.59
2023-01-27T17:48:52.186Z,101813.94
2023-01-27T17:51:36.197Z,101807.78
2023-01-27T17:54:17.136Z,101804.38
2023-01-27T17:56:44.992Z,101805.16
2023-01-27T17:59:23.050Z,101811.31
2023-01-27T18:01:54.404Z,101811.31
2023-01-27T18:04:24.342Z,101800.69
2023-01-27T18:06:52.913Z,101801.63
2023-01-27T18:09:25.240Z,101804.16
2023-01-27T18:11:56.166Z,101804.22
2023-01-27T18:14:24.753Z,101811.19
2023-01-27T18:17:00.020Z,101814.72
2023-01-27T18:19:29.460Z,101803.59
2023-01-27T18:22:18.607Z,101808.91
2023-01-27T18:24:53.088Z,101808.97
2023-01-27T18:27:24.168Z,101804.06
2023-01-27T18:29:53.871Z,101820.75
2023-01-27T18:32:24.843Z,101822.38
2023-01-27T18:34:57.218Z,101827.63
2023-01-27T18:37:29.050Z,101834.38
2023-01-27T18:39:58.984Z,101837.91
2023-01-27T18:42:28.740Z,101839.50
2023-01-27T18:44:57.681Z,101836.16
2023-01-27T18:47:31.192Z,101840.19
2023-01-27T18:50:05.625Z,101842.91
2023-01-27T18:52:33.359Z,101842.03
2023-01-27T18:55:11.441Z,101836.88
2023-01-27T18:57:39.328Z,101836.88
2023-01-27T19:00:14.766Z,101839.63
2023-01-27T19:02:46.375Z,101844.72
2023-01-27T19:05:18.993Z,101845.72
2023-01-27T19:07:46.941Z,101837.91
2023-01-27T19:10:17.723Z,101842.13
2023-01-27T19:12:45.779Z,101849.91
2023-01-27T19:15:16.102Z,101852.59
2023-01-27T19:17:46.308Z,101839.63
2023-01-27T19:20:18.809Z,101842.13
2023-01-27T19:22:47.346Z,101838.69
2023-01-27T19:25:15.683Z,101844.72
2023-01-27T19:27:46.144Z,101841.19
2023-01-27T19:30:24.994Z,101839.50
2023-01-27T19:32:53.667Z,101839.50
2023-01-27T19:35:23.997Z,101816.66
2023-01-27T19:37:54.107Z,101837.91
2023-01-27T19:40:24.652Z,101844.00
2023-01-27T19:42:52.423Z,101848.50
2023-01-27T19:45:20.993Z,101849.31
2023-01-27T19:47:50.285Z,101847.59
2023-01-27T19:50:21.791Z,101834.00
2023-01-27T19:52:51.479Z,101848.31
2023-01-27T19:55:20.704Z,101854.47
2023-01-27T19:57:49.239Z,101861.53
2023-01-27T20:00:23.219Z,101867.63
2023-01-27T20:02:51.431Z,101863.31
2023-01-27T20:05:19.854Z,101863.56
2023-01-27T20:07:48.918Z,101871.91
2023-01-27T20:10:20.378Z,101880.66
2023-01-27T20:12:54.534Z,101888.59
2023-01-27T20:15:24.999Z,101885.06
2023-01-27T20:17:56.168Z,101871.50
2023-01-27T20:20:25.470Z,101880.59
2023-01-27T20:22:53.799Z,101891.09
2023-01-27T20:25:24.718Z,101892.00
2023-01-27T20:27:54.619Z,101885.19
2023-01-27T20:30:27.636Z,101878.72
2023-01-27T20:32:56.515Z,101867.25
2023-01-27T20:35:24.553Z,101894.63
2023-01-27T20:37:53.515Z,101877.44
2023-01-27T20:40:24.488Z,101893.75
2023-01-27T20:42:53.238Z,101882.75
2023-01-27T20:45:21.586Z,101892.00
2023-01-27T20:47:50.769Z,101892.78
2023-01-27T20:50:21.094Z,101893.63
2023-01-27T20:52:51.388Z,101885.91
2023-01-27T20:55:26.772Z,101882.56
2023-01-27T20:57:54.471Z,101890.28
2023-01-27T21:00:23.173Z,101892.00
2023-01-27T21:02:51.045Z,101866.47
2023-01-27T21:05:21.851Z,101895.53
2023-01-27T21:07:49.634Z,101898.09
2023-01-27T21:10:24.186Z,101885.28
2023-01-27T21:13:03.473Z,101906.13
2023-01-27T21:15:31.704Z,101914.78
2023-01-27T21:17:59.972Z,101912.03
2023-01-27T21:20:29.636Z,101908.56
2023-01-27T21:22:57.582Z,101909.28
2023-01-27T21:25:26.958Z,101912.03
2023-01-27T21:27:54.835Z,101914.53
2023-01-27T21:30:25.576Z,101918.97
2023-01-27T21:32:53.360Z,101912.03
2023-01-27T21:35:22.270Z,101909.41
2023-01-27T21:37:53.094Z,101880.56
2023-01-27T21:40:20.998Z,101917.91
2023-01-27T21:43:07.509Z,101919.50
2023-01-27T21:45:35.311Z,101914.53
2023-01-27T21:48:03.111Z,101906.75
2023-01-27T21:50:31.087Z,101904.97
2023-01-27T21:52:58.861Z,101899.06
2023-01-27T21:55:30.496Z,101907.84
2023-01-27T21:57:59.612Z,101903.44
2023-01-27T22:00:29.720Z,101903.31
2023-01-27T22:02:59.057Z,101900.66
2023-01-27T22:05:28.346Z,101900.88
2023-01-27T22:07:57.789Z,101903.31
2023-01-27T22:10:27.771Z,101908.44
2023-01-27T22:13:00.374Z,101904.97
2023-01-27T22:15:29.438Z,101906.00
2023-01-27T22:17:57.355Z,101904.31
2023-01-27T22:20:25.450Z,101902.28
2023-01-27T22:22:53.195Z,101906.00
2023-01-27T22:25:20.982Z,101906.47
2023-01-27T22:27:48.730Z,101916.16
2023-01-27T22:30:19.451Z,101918.19
2023-01-27T22:32:48.206Z,101904.41
2023-01-27T22:35:18.135Z,101908.81
2023-01-27T22:37:46.809Z,101917.50
2023-01-27T22:40:14.650Z,101916.47
2023-01-27T22:42:42.418Z,101918.44
2023-01-27T22:45:11.655Z,101903.13
2023-01-27T22:47:40.732Z,101914.91
2023-01-27T22:50:09.894Z,101918.72
2023-01-27T22:52:40.123Z,101915.28
2023-01-27T22:55:10.273Z,101906.66
2023-01-27T22:57:37.994Z,101916.16
2023-01-27T23:00:07.391Z,101910.97
2023-01-27T23:02:37.088Z,101916.16
2023-01-27T23:05:07.039Z,101915.28
2023-01-27T23:07:34.856Z,101912.75
2023-01-27T23:10:02.591Z,101909.28
2023-01-27T23:12:30.387Z,101912.09
2023-01-27T23:15:00.264Z,101908.81
2023-01-27T23:17:28.442Z,101907.84
2023-01-27T23:19:56.209Z,101913.91
2023-01-27T23:22:25.350Z,101914.19
2023-01-27T23:24:53.138Z,101911.63
2023-01-27T23:27:20.862Z,101919.06
2023-01-27T23:29:48.806Z,101916.63
2023-01-27T23:32:21.946Z,101903.97
2023-01-27T23:34:50.358Z,101907.50
2023-01-27T23:37:18.249Z,101905.84
2023-01-27T23:39:49.680Z,101909.56
2023-01-27T23:42:17.651Z,101913.38
2023-01-27T23:44:58.540Z,101911.75
2023-01-27T23:47:26.350Z,101912.75
2023-01-27T23:49:54.165Z,101905.88
2023-01-27T23:52:21.986Z,101906.13
2023-01-27T23:54:53.769Z,101898.34
2023-01-27T23:57:21.611Z,101901.97
2023-01-27T23:59:49.312Z,101898.50
